LFML/MRS METAR and TAF weather

Enter ICAO airport designator
Station Type Date Time Source
LFML METAR 2019/11/15 05:30 UTC NOAA

LFML 150530Z AUTO VRB01KT CAVOK 05/03 Q1001 NOSIG


Station Type Date Time Source
LFML Decoded METAR 2019/11/15 05:30 UTC NOAA

Marseille / Marignane, France (LFML) 43-27N 005-14E 36M
Nov 15, 2019 - 12:30 AM EST / 2019.11.15 0530 UTC
Wind: Variable at 1 MPH (1 KT):0
Visibility: greater than 7 mile(s):0
Temperature: 41 F (5 C)
Dew Point: 37 F (3 C)
Relative Humidity: 86%
Pressure (altimeter): 29.56 in. Hg (1001 hPa)
ob: LFML 150530Z AUTO VRB01KT CAVOK 05/03 Q1001 NOSIG
cycle: 5

Station Type Date Time Source
LFML TAF 2019/11/15 03:39 UTC NOAA

TAF TAF
AMD LFML 150330Z 1503/1609 VRB02KT 9999 SCT008 TX11/1514Z TN04/1506Z PROB30
TEMPO 1503/1505 4000 BR
TEMPO 1505/1510 08010KT
TEMPO 1514/1517 VRB15KT 4000 TSRA OVC030 SCT033CB
TEMPO 1517/1524 RA OVC030 SCT033TCU

Example: see airport list